Washington, District of Columbia
Current Conditions -  °F | °C
As of 7:52 PM on Saturday 20 Dec 2014 (Local Time) from KDCA Reporting Station
Overcast Overcast  
Wind Chill: 38°   Ceiling: 12000
Heat Index: 38°   Visibility: 10mi
Dew Point: 21°   Wind: 3mph
Humidity: 51%   Direction: 260°W
Pressure: 30.31"   Gusts: NA
Location:  38.89°N, 77.03°W
Report Text: KDCA 210052Z 26003KT 10SM SCT080 OVC120 03/M06 A3031 RMK AO2 SLP262 T00331061
Loading
Personal Weather Stations






























Interactive Weather Map New forecast layout! Learn more

10-Day Weather Forecast

Advertisements
Track Severe Weather on mobile